createdAt,value
2018-03-11T11:14:55.505Z,0.00
2018-03-11T11:29:56.455Z,0.00
2018-03-11T11:31:22.369Z,0.00
2018-03-11T11:32:22.680Z,0.00
2018-03-11T11:40:24.692Z,26.64
2018-03-11T11:42:27.466Z,32.52
2018-03-11T11:43:12.517Z,31.08
2018-03-11T11:44:08.848Z,35.04
2018-03-11T11:48:10.255Z,1.80
2018-03-11T11:48:38.943Z,2.04
2018-03-11T11:49:43.863Z,1.76
2018-03-11T11:50:37.246Z,0.68
2018-03-11T11:51:37.174Z,1.84
2018-03-11T11:52:37.042Z,1.16
2018-03-11T11:53:37.058Z,2.32
2018-03-11T11:54:37.070Z,3.88
2018-03-11T11:55:37.074Z,1.12
2018-03-11T11:56:37.082Z,2.84
2018-03-11T11:57:37.094Z,2.72
2018-03-11T11:58:37.094Z,5.16
2018-03-11T11:59:37.103Z,5.80
2018-03-11T12:00:37.116Z,3.56
2018-03-11T12:01:37.118Z,5.20
2018-03-11T12:02:37.126Z,3.36
2018-03-11T12:03:37.132Z,4.44
2018-03-11T12:04:37.138Z,3.28
2018-03-11T12:05:37.145Z,1.92
2018-03-11T12:06:37.050Z,3.44
2018-03-11T12:07:37.121Z,4.68
2018-03-11T12:08:37.030Z,3.88
2018-03-11T12:09:37.069Z,3.12
2018-03-11T12:10:37.041Z,4.80
2018-03-11T12:11:37.085Z,3.76
2018-03-11T12:12:37.093Z,3.48
2018-03-11T12:13:39.718Z,3.60
2018-03-11T12:14:37.109Z,4.16
2018-03-11T12:15:37.226Z,4.16
2018-03-11T12:16:37.134Z,5.20
2018-03-11T12:17:40.141Z,3.72
2018-03-11T12:18:37.146Z,3.36
2018-03-11T12:19:37.155Z,4.12
2018-03-11T12:20:37.158Z,4.68
2018-03-11T12:21:36.922Z,3.28
2018-03-11T12:22:37.103Z,4.88
2018-03-11T12:23:37.082Z,4.04
2018-03-11T12:24:37.076Z,3.52
2018-03-11T12:25:38.929Z,3.72
2018-03-11T12:26:37.102Z,4.76
2018-03-11T12:27:37.103Z,3.36
2018-03-11T12:28:37.104Z,2.80
2018-03-11T12:29:37.126Z,1.64
2018-03-11T12:30:37.150Z,3.44
2018-03-11T12:31:37.090Z,3.68
2018-03-11T12:32:37.037Z,2.80
2018-03-11T12:33:37.143Z,2.56
2018-03-11T12:34:37.149Z,1.92
2018-03-11T12:35:37.162Z,1.72
2018-03-11T12:36:37.069Z,4.00
2018-03-11T12:37:37.317Z,2.72
2018-03-11T12:38:37.348Z,2.72
2018-03-11T12:39:37.089Z,1.76
2018-03-11T12:40:39.807Z,3.36
2018-03-11T12:41:37.098Z,4.08
2018-03-11T12:42:37.114Z,1.52
2018-03-11T12:43:36.977Z,2.12
2018-03-11T12:44:37.018Z,2.48
2018-03-11T12:45:37.150Z,3.12
2018-03-11T12:46:38.367Z,3.96
2018-03-11T12:47:36.708Z,3.52
2018-03-11T12:48:37.045Z,3.00
2018-03-11T12:49:37.157Z,2.96
2018-03-11T12:50:37.061Z,3.52
2018-03-11T12:51:37.069Z,5.08
2018-03-11T12:52:37.054Z,4.20
2018-03-11T12:53:36.987Z,4.88
2018-03-11T12:54:37.049Z,3.04
2018-03-11T12:55:36.993Z,4.92
2018-03-11T12:56:37.110Z,4.92
2018-03-11T12:57:37.011Z,2.64
2018-03-11T12:58:37.080Z,3.32
2018-03-11T12:59:37.012Z,5.24
2018-03-11T13:00:37.093Z,4.68
2018-03-11T13:01:37.109Z,2.56
2018-03-11T13:02:37.109Z,3.04
2018-03-11T13:03:39.372Z,6.16
2018-03-11T13:04:37.120Z,2.76
2018-03-11T13:05:37.151Z,3.52
2018-03-11T13:06:37.079Z,4.96
2018-03-11T13:07:37.082Z,5.00
2018-03-11T13:08:38.159Z,4.36
2018-03-11T13:09:37.272Z,2.72
2018-03-11T13:10:37.807Z,5.24
2018-03-11T13:11:38.106Z,4.28
2018-03-11T13:12:38.033Z,3.80
2018-03-11T13:13:37.843Z,3.36
2018-03-11T13:14:37.168Z,2.64
2018-03-11T13:15:37.667Z,3.84
2018-03-11T13:16:37.606Z,3.00
2018-03-11T13:17:37.374Z,4.72
2018-03-11T13:18:37.715Z,3.64
2018-03-11T13:19:37.170Z,5.88
2018-03-11T13:20:37.176Z,2.20
2018-03-11T13:21:37.458Z,3.36
2018-03-11T13:22:37.351Z,4.48
2018-03-11T13:23:46.756Z,2.96
2018-03-11T13:24:57.490Z,3.88
2018-03-11T13:25:45.408Z,4.44
2018-03-11T13:27:45.492Z,2.92
2018-03-11T13:28:39.861Z,3.60
2018-03-11T13:29:47.880Z,3.04
2018-03-11T13:30:55.269Z,4.52
2018-03-11T13:31:37.497Z,3.44
2018-03-11T13:32:37.163Z,2.24
2018-03-11T13:33:54.454Z,2.92
2018-03-11T13:34:52.085Z,1.60
2018-03-11T13:35:49.052Z,3.00
2018-03-11T13:36:45.871Z,2.72
2018-03-11T13:37:50.313Z,1.44
2018-03-11T13:38:46.328Z,1.84
2018-03-11T13:39:50.448Z,3.12
2018-03-11T13:40:42.156Z,3.64
2018-03-11T13:41:47.127Z,2.68
2018-03-11T13:42:37.132Z,0.96
2018-03-11T13:43:37.145Z,0.80
2018-03-11T13:44:37.148Z,1.84
2018-03-11T13:45:37.158Z,2.04
2018-03-11T13:46:38.190Z,2.44
2018-03-11T13:47:37.173Z,0.84
2018-03-11T13:48:37.181Z,1.24
2018-03-11T13:49:37.189Z,0.12
2018-03-11T13:50:37.196Z,0.80
2018-03-11T13:51:37.374Z,2.12
2018-03-11T13:52:37.109Z,2.64
2018-03-11T13:53:37.070Z,2.68
2018-03-11T13:54:37.246Z,2.00
2018-03-11T13:55:37.143Z,2.32
2018-03-11T13:56:37.141Z,1.36
2018-03-11T13:57:37.138Z,1.68
2018-03-11T13:58:37.148Z,5.00
2018-03-11T13:59:37.187Z,3.20
2018-03-11T14:00:37.167Z,2.16
2018-03-11T14:01:37.164Z,1.32
2018-03-11T14:02:37.206Z,0.72
2018-03-11T14:03:37.181Z,0.96
2018-03-11T14:04:37.192Z,1.36
2018-03-11T14:05:37.201Z,1.48
2018-03-11T14:06:37.204Z,1.80
2018-03-11T14:07:37.110Z,2.08
2018-03-11T14:08:37.316Z,2.48
2018-03-11T14:09:37.128Z,1.92
2018-03-11T14:10:37.193Z,1.80
2018-03-11T14:11:37.143Z,2.08
2018-03-11T14:12:37.458Z,4.84
2018-03-11T14:13:37.252Z,4.16
2018-03-11T14:14:37.159Z,2.32
2018-03-11T14:15:37.173Z,1.76
2018-03-11T14:16:37.278Z,3.04
2018-03-11T14:17:37.146Z,2.76
2018-03-11T14:18:37.195Z,6.36
2018-03-11T14:19:37.174Z,4.04
2018-03-11T14:20:40.274Z,1.72
2018-03-11T14:21:37.219Z,4.36
2018-03-11T14:22:37.123Z,3.48
2018-03-11T14:23:37.098Z,1.64
2018-03-11T14:24:37.130Z,2.64
2018-03-11T14:25:37.143Z,5.92
2018-03-11T14:26:37.150Z,6.28
2018-03-11T14:27:37.149Z,5.24
2018-03-11T14:28:37.167Z,3.32
2018-03-11T14:29:37.207Z,3.92
2018-03-11T14:30:37.173Z,1.92
2018-03-11T14:31:37.189Z,1.96
2018-03-11T14:32:37.190Z,3.76
2018-03-11T14:33:37.193Z,2.28
2018-03-11T14:34:37.210Z,3.80
2018-03-11T14:35:37.208Z,2.68
2018-03-11T14:36:37.187Z,3.76
2018-03-11T14:37:37.185Z,3.12
2018-03-11T14:38:37.113Z,1.80
2018-03-11T14:39:37.134Z,0.28
2018-03-11T14:40:37.145Z,3.24
2018-03-11T14:41:40.023Z,4.44
2018-03-11T14:42:37.263Z,3.76
2018-03-11T14:43:37.161Z,6.48
2018-03-11T14:44:37.177Z,9.40
2018-03-11T14:45:37.542Z,7.28
2018-03-11T14:46:38.315Z,4.96
2018-03-11T14:47:37.202Z,3.56
2018-03-11T14:48:37.202Z,1.92
2018-03-11T14:49:37.206Z,1.76
2018-03-11T14:50:37.222Z,2.92
2018-03-11T14:51:40.398Z,4.00
2018-03-11T14:52:40.107Z,4.44
2018-03-11T14:53:37.133Z,3.28
2018-03-11T14:54:36.997Z,2.32
2018-03-11T14:55:37.008Z,2.04
2018-03-11T14:56:37.158Z,1.40
2018-03-11T14:57:37.171Z,2.32
2018-03-11T14:58:37.174Z,1.84
2018-03-11T14:59:37.181Z,1.60
2018-03-11T15:00:37.190Z,1.64
2018-03-11T15:01:37.188Z,2.32
2018-03-11T15:02:37.249Z,3.36
2018-03-11T15:03:37.213Z,2.92
2018-03-11T15:04:37.219Z,5.96
2018-03-11T15:05:37.226Z,5.12
2018-03-11T15:06:37.195Z,2.92
2018-03-11T15:07:37.207Z,3.08
2018-03-11T15:08:37.245Z,3.08
2018-03-11T15:09:37.150Z,3.00
2018-03-11T15:10:37.629Z,2.32
2018-03-11T15:11:37.576Z,2.40
2018-03-11T15:12:37.179Z,2.60
2018-03-11T15:13:37.190Z,3.12
2018-03-11T15:14:38.493Z,3.56
2018-03-11T15:15:37.197Z,4.76
2018-03-11T15:16:37.310Z,3.72
2018-03-11T15:17:37.114Z,4.04
2018-03-11T15:18:37.263Z,5.12
2018-03-11T15:19:37.237Z,4.84
2018-03-11T15:20:37.230Z,3.44
2018-03-11T15:21:36.745Z,4.56
2018-03-11T15:22:36.750Z,3.72
2018-03-11T15:23:37.158Z,3.32
2018-03-11T15:24:37.155Z,5.88
2018-03-11T15:25:37.161Z,7.08
2018-03-11T15:26:37.173Z,5.76
2018-03-11T15:27:37.181Z,3.64
2018-03-11T15:28:37.187Z,4.88
2018-03-11T15:29:37.198Z,3.56
2018-03-11T15:30:37.202Z,4.32
2018-03-11T15:31:37.207Z,5.12
2018-03-11T15:32:37.217Z,4.12
2018-03-11T15:33:37.223Z,6.44
2018-03-11T15:34:37.231Z,6.96
2018-03-11T15:35:37.203Z,7.28
2018-03-11T15:36:37.243Z,8.60
2018-03-11T15:37:37.244Z,6.72
2018-03-11T15:38:37.154Z,8.12
2018-03-11T15:39:37.170Z,5.76
2018-03-11T15:40:37.170Z,4.80
2018-03-11T15:41:37.178Z,3.24
2018-03-11T15:42:37.194Z,4.12
2018-03-11T15:43:37.190Z,2.56
2018-03-11T15:44:37.199Z,2.80
2018-03-11T15:45:37.210Z,6.36
2018-03-11T15:46:38.345Z,5.60
2018-03-11T15:47:37.218Z,12.52
2018-03-11T15:48:37.189Z,6.72
2018-03-11T15:49:37.254Z,3.56
2018-03-11T15:50:37.242Z,5.20
2018-03-11T15:51:37.258Z,4.24
2018-03-11T15:52:37.217Z,5.40
2018-03-11T15:53:37.137Z,3.72
2018-03-11T15:54:37.164Z,2.56
2018-03-11T15:55:37.182Z,2.64
2018-03-11T15:56:37.150Z,5.40
2018-03-11T15:57:37.190Z,3.52
2018-03-11T15:58:37.206Z,2.60
2018-03-11T15:59:37.206Z,2.28
2018-03-11T16:00:37.214Z,2.00
2018-03-11T16:01:37.224Z,5.28
2018-03-11T16:02:37.226Z,2.28
2018-03-11T16:03:37.233Z,2.64
2018-03-11T16:04:37.249Z,3.12
2018-03-11T16:05:37.252Z,4.60
2018-03-11T16:06:37.255Z,5.68
2018-03-11T16:07:37.265Z,6.00
2018-03-11T16:08:37.303Z,4.20
2018-03-11T16:09:37.174Z,2.28
2018-03-11T16:10:37.181Z,4.24
2018-03-11T16:11:37.199Z,4.92
2018-03-11T16:12:37.198Z,5.28
2018-03-11T16:13:37.206Z,4.32
2018-03-11T16:14:37.218Z,4.48
2018-03-11T16:15:37.219Z,3.88
2018-03-11T16:16:37.229Z,4.44
2018-03-11T16:17:38.677Z,3.20
2018-03-11T16:18:37.250Z,3.24
2018-03-11T16:19:37.245Z,5.24
2018-03-11T16:20:37.266Z,4.16
2018-03-11T16:21:37.262Z,4.44
2018-03-11T16:22:37.269Z,5.20
2018-03-11T16:23:37.287Z,4.12
2018-03-11T16:24:39.724Z,3.40
2018-03-11T16:25:37.191Z,3.72
2018-03-11T16:26:37.199Z,4.60
2018-03-11T16:27:38.233Z,4.00
2018-03-11T16:28:37.314Z,4.20
2018-03-11T16:29:37.327Z,4.20
2018-03-11T16:30:37.233Z,3.96
2018-03-11T16:31:37.234Z,4.24
2018-03-11T16:32:37.205Z,2.64
2018-03-11T16:33:37.250Z,4.68
2018-03-11T16:34:37.258Z,6.00
2018-03-11T16:35:37.264Z,2.60
2018-03-11T16:36:37.278Z,3.60
2018-03-11T16:37:37.276Z,0.76
2018-03-11T16:38:37.392Z,1.32
2018-03-11T16:39:37.190Z,1.24
2018-03-11T16:40:37.202Z,1.64
2018-03-11T16:41:37.106Z,3.84
2018-03-11T16:42:37.234Z,3.52
2018-03-11T16:43:37.222Z,4.32
2018-03-11T16:44:37.236Z,3.28
2018-03-11T16:45:37.238Z,3.40
2018-03-11T16:46:38.474Z,2.68
2018-03-11T16:47:37.254Z,5.00
2018-03-11T16:48:37.261Z,4.84
2018-03-11T16:49:37.269Z,5.08
2018-03-11T16:50:37.264Z,8.48
2018-03-11T16:51:37.278Z,7.12
2018-03-11T16:52:37.246Z,11.28
2018-03-11T16:53:37.217Z,7.00
2018-03-11T16:54:37.301Z,7.84
2018-03-11T16:55:37.201Z,6.68
2018-03-11T16:56:37.222Z,11.68
2018-03-11T16:57:37.213Z,7.44
2018-03-11T16:58:37.224Z,6.20
2018-03-11T16:59:37.246Z,7.96
2018-03-11T17:00:37.237Z,7.60
2018-03-11T17:01:37.246Z,10.28
2018-03-11T17:02:37.259Z,7.00
2018-03-11T17:03:37.258Z,6.60
2018-03-11T17:04:37.266Z,9.48
2018-03-11T17:05:37.281Z,9.80
2018-03-11T17:06:40.246Z,9.56
2018-03-11T17:07:40.905Z,12.00
2018-03-11T17:08:41.503Z,12.76
2018-03-11T17:09:37.611Z,12.04
2018-03-11T17:10:37.210Z,11.44
2018-03-11T17:11:37.293Z,14.08
2018-03-11T17:12:37.186Z,12.12
2018-03-11T17:13:37.233Z,9.60
2018-03-11T17:14:37.237Z,13.40
2018-03-11T17:15:37.249Z,14.68
2018-03-11T17:16:37.253Z,14.20
2018-03-11T17:17:37.258Z,15.56
2018-03-11T17:18:37.274Z,14.36
2018-03-11T17:19:37.275Z,17.00
2018-03-11T17:20:37.282Z,11.92
2018-03-11T17:21:37.294Z,13.96
2018-03-11T17:22:37.298Z,14.72
2018-03-11T17:23:37.302Z,17.68
2018-03-11T17:24:37.325Z,12.76
2018-03-11T17:25:37.223Z,17.84
2018-03-11T17:26:37.221Z,14.56
2018-03-11T17:27:37.225Z,14.40
2018-03-11T17:28:37.243Z,15.96
2018-03-11T17:29:37.242Z,11.84
2018-03-11T17:30:37.249Z,12.96
2018-03-11T17:31:37.266Z,12.36
2018-03-11T17:32:37.269Z,16.32
2018-03-11T17:33:37.235Z,18.76
2018-03-11T17:34:37.297Z,13.84
2018-03-11T17:35:37.191Z,16.56
2018-03-11T17:36:37.294Z,17.16
2018-03-11T17:37:37.311Z,19.12
2018-03-11T17:38:37.170Z,19.52
2018-03-11T17:39:37.319Z,15.76
2018-03-11T17:40:37.330Z,14.92
2018-03-11T17:41:37.101Z,13.28
2018-03-11T17:42:37.237Z,15.44
2018-03-11T17:43:37.259Z,16.28
2018-03-11T17:44:37.209Z,14.32
2018-03-11T17:45:37.223Z,11.20
2018-03-11T17:46:38.393Z,11.00
2018-03-11T17:47:37.277Z,14.88
2018-03-11T17:48:37.281Z,13.48
2018-03-11T17:49:37.294Z,13.12
2018-03-11T17:50:37.298Z,16.36
2018-03-11T17:51:37.266Z,13.76
2018-03-11T17:52:37.205Z,10.04
2018-03-11T17:53:38.628Z,8.12
2018-03-11T17:54:37.293Z,9.76
2018-03-11T17:55:37.325Z,9.68
2018-03-11T17:56:37.278Z,11.72
2018-03-11T17:57:37.250Z,13.12
2018-03-11T17:58:37.250Z,13.08
2018-03-11T17:59:37.256Z,13.48
2018-03-11T18:00:37.226Z,13.64
2018-03-11T18:01:37.133Z,14.76
2018-03-11T18:02:37.278Z,12.08
2018-03-11T18:03:37.291Z,13.52
2018-03-11T18:04:37.296Z,11.12
2018-03-11T18:05:37.305Z,15.32
2018-03-11T18:06:37.413Z,16.44
2018-03-11T18:07:37.177Z,13.48
2018-03-11T18:08:37.326Z,13.08
2018-03-11T18:09:37.338Z,12.52
2018-03-11T18:10:37.338Z,11.12
2018-03-11T18:11:37.236Z,10.60
2018-03-11T18:12:37.314Z,10.16
2018-03-11T18:13:37.267Z,14.04
2018-03-11T18:14:37.262Z,15.96
2018-03-11T18:15:37.228Z,17.04
2018-03-11T18:16:37.243Z,10.20
2018-03-11T18:17:37.249Z,14.04
2018-03-11T18:18:37.294Z,17.04
2018-03-11T18:19:37.262Z,16.68
2018-03-11T18:20:37.282Z,13.52
2018-03-11T18:21:37.182Z,16.20
2018-03-11T18:22:37.216Z,14.88
2018-03-11T18:23:37.234Z,12.68
2018-03-11T18:24:37.335Z,15.68
2018-03-11T18:25:37.351Z,14.44
2018-03-11T18:26:37.233Z,15.20
2018-03-11T18:27:37.253Z,13.28
2018-03-11T18:28:37.262Z,13.20
2018-03-11T18:29:37.273Z,12.32
2018-03-11T18:30:38.653Z,13.68
2018-03-11T18:31:37.281Z,8.72
2018-03-11T18:32:37.294Z,12.00
2018-03-11T18:33:39.553Z,15.68
2018-03-11T18:34:37.307Z,10.52
2018-03-11T18:35:37.317Z,11.36
2018-03-11T18:36:37.321Z,13.12
2018-03-11T18:37:37.364Z,8.76
2018-03-11T18:38:37.306Z,9.20
2018-03-11T18:39:37.312Z,10.72
2018-03-11T18:40:37.309Z,9.24
2018-03-11T18:41:37.256Z,12.60
2018-03-11T18:42:37.250Z,12.12
2018-03-11T18:43:37.245Z,11.72
2018-03-11T18:44:37.241Z,14.72
2018-03-11T18:45:37.242Z,14.24
2018-03-11T18:46:38.518Z,13.24
2018-03-11T18:47:37.299Z,13.84
2018-03-11T18:48:37.310Z,10.48
2018-03-11T18:49:39.331Z,13.84
2018-03-11T18:50:37.318Z,15.96
2018-03-11T18:51:37.339Z,13.80
2018-03-11T18:52:37.334Z,13.76
2018-03-11T18:53:37.348Z,17.84
2018-03-11T18:54:37.721Z,17.12
2018-03-11T18:55:37.458Z,15.28
2018-03-11T18:56:37.258Z,16.56
2018-03-11T18:57:37.429Z,16.12
2018-03-11T18:58:37.282Z,12.84
2018-03-11T18:59:37.282Z,15.76
2018-03-11T19:00:37.289Z,13.36
2018-03-11T19:01:37.302Z,13.24
2018-03-11T19:02:37.306Z,16.40
2018-03-11T19:03:37.358Z,14.64
2018-03-11T19:04:37.327Z,14.48
2018-03-11T19:05:38.562Z,13.56
2018-03-11T19:06:37.302Z,13.04
2018-03-11T19:07:37.346Z,17.88
2018-03-11T19:08:38.136Z,20.12
2018-03-11T19:09:37.354Z,16.32
2018-03-11T19:10:37.371Z,14.16
2018-03-11T19:11:37.269Z,20.32
2018-03-11T19:12:37.274Z,18.20
2018-03-11T19:13:37.283Z,19.20
2018-03-11T19:14:37.294Z,18.56
2018-03-11T19:15:37.294Z,19.92
2018-03-11T19:16:37.437Z,22.00
2018-03-11T19:17:37.475Z,20.92
2018-03-11T19:18:51.202Z,23.84
2018-03-11T19:19:48.866Z,21.40
2018-03-11T19:20:51.829Z,23.08
2018-03-11T19:21:46.018Z,19.36
2018-03-11T19:22:44.064Z,18.48
2018-03-11T19:23:37.362Z,23.08
2018-03-11T19:24:37.361Z,22.16
2018-03-11T19:25:37.266Z,22.64
2018-03-11T19:26:37.273Z,17.92
2018-03-11T19:27:37.285Z,19.68
2018-03-11T19:28:37.298Z,22.84
2018-03-11T19:29:37.295Z,17.44
2018-03-11T19:30:39.231Z,25.08
2018-03-11T19:31:37.329Z,19.56
2018-03-11T19:32:37.335Z,18.32
2018-03-11T19:33:37.334Z,20.96
2018-03-11T19:34:37.334Z,16.72
2018-03-11T19:35:37.347Z,20.24
2018-03-11T19:36:37.358Z,18.36
2018-03-11T19:37:37.329Z,19.56
2018-03-11T19:38:37.322Z,21.32
2018-03-11T19:39:37.272Z,23.56
2018-03-11T19:40:37.382Z,22.72
2018-03-11T19:41:37.287Z,20.76
2018-03-11T19:42:37.299Z,22.40
2018-03-11T19:43:37.259Z,26.64
2018-03-11T19:44:37.273Z,18.76
2018-03-11T19:45:37.320Z,21.20
2018-03-11T19:46:38.442Z,22.40
2018-03-11T19:47:37.291Z,18.16
2018-03-11T19:48:37.325Z,14.96
2018-03-11T19:49:37.239Z,22.68
2018-03-11T19:50:37.445Z,22.80
2018-03-11T19:51:37.468Z,21.28
2018-03-11T19:52:37.367Z,18.56
2018-03-11T19:53:37.367Z,20.48
2018-03-11T19:54:37.389Z,17.72
2018-03-11T19:55:37.397Z,20.08
2018-03-11T19:56:37.353Z,18.84
2018-03-11T19:57:37.296Z,18.36
2018-03-11T19:58:37.303Z,19.80
2018-03-11T19:59:37.314Z,18.16
2018-03-11T20:00:37.345Z,17.12
2018-03-11T20:01:37.326Z,20.04
2018-03-11T20:02:37.339Z,19.16
2018-03-11T20:03:37.341Z,16.96
2018-03-11T20:04:37.346Z,21.20
2018-03-11T20:05:37.373Z,19.12
2018-03-11T20:06:37.358Z,19.92
2018-03-11T20:07:37.368Z,16.84
2018-03-11T20:08:37.377Z,15.00
2018-03-11T20:09:37.383Z,19.32
2018-03-11T20:10:37.284Z,19.16
2018-03-11T20:11:37.294Z,21.16
2018-03-11T20:12:37.399Z,17.76
2018-03-11T20:13:37.364Z,19.12
2018-03-11T20:14:37.314Z,23.44
2018-03-11T20:15:37.314Z,17.84
2018-03-11T20:16:37.330Z,15.40
2018-03-11T20:17:37.342Z,18.72
2018-03-11T20:18:37.355Z,17.56
2018-03-11T20:19:37.350Z,19.64
2018-03-11T20:20:37.323Z,16.20
2018-03-11T20:21:37.370Z,21.08
2018-03-11T20:22:37.370Z,20.16
2018-03-11T20:23:37.351Z,21.48
2018-03-11T20:24:40.003Z,16.04
2018-03-11T20:25:37.397Z,16.44
2018-03-11T20:26:37.373Z,18.40
2018-03-11T20:27:37.272Z,16.64
2018-03-11T20:28:37.283Z,17.60
2018-03-11T20:29:37.318Z,14.28
2018-03-11T20:30:37.325Z,18.48
2018-03-11T20:31:37.317Z,21.84
2018-03-11T20:32:38.262Z,17.48
2018-03-11T20:33:37.358Z,18.68
2018-03-11T20:34:37.366Z,18.76
2018-03-11T20:35:37.367Z,16.60
2018-03-11T20:36:37.374Z,15.72
2018-03-11T20:37:37.381Z,15.80
2018-03-11T20:38:37.372Z,17.76
2018-03-11T20:39:37.391Z,17.68
2018-03-11T20:40:37.405Z,17.52
2018-03-11T20:41:37.406Z,13.92
2018-03-11T20:42:37.414Z,19.04
2018-03-11T20:43:37.318Z,18.40
2018-03-11T20:44:37.335Z,12.28
2018-03-11T20:45:37.392Z,13.68
2018-03-11T20:46:38.678Z,17.96
2018-03-11T20:47:37.355Z,18.00
2018-03-11T20:48:37.358Z,16.00
2018-03-11T20:49:37.361Z,14.64
2018-03-11T20:50:37.466Z,17.76
2018-03-11T20:51:37.346Z,21.20
2018-03-11T20:52:37.386Z,12.00
2018-03-11T20:53:37.398Z,17.08
2018-03-11T20:54:37.398Z,18.28
2018-03-11T20:55:37.409Z,22.16
2018-03-11T20:56:37.422Z,18.32
2018-03-11T20:57:37.425Z,14.84
2018-03-11T20:58:37.454Z,18.68
2018-03-11T20:59:37.338Z,14.68
2018-03-11T21:00:37.355Z,15.76
2018-03-11T21:01:37.361Z,19.28
2018-03-11T21:02:37.362Z,20.08
2018-03-11T21:03:37.868Z,17.64
2018-03-11T21:04:37.587Z,19.48
2018-03-11T21:05:37.382Z,16.16
2018-03-11T21:06:37.590Z,14.36
2018-03-11T21:07:37.497Z,13.24
2018-03-11T21:08:37.398Z,15.36
2018-03-11T21:09:37.419Z,14.48
2018-03-11T21:10:37.414Z,18.32
2018-03-11T21:11:37.494Z,18.40
2018-03-11T21:12:39.994Z,17.40
2018-03-11T21:13:39.361Z,17.24
2018-03-11T21:14:37.313Z,16.16
2018-03-11T21:15:37.344Z,17.00
2018-03-11T21:16:37.357Z,16.84
2018-03-11T21:17:37.361Z,19.72
2018-03-11T21:18:37.370Z,13.32
2018-03-11T21:19:37.382Z,15.68
2018-03-11T21:20:37.382Z,15.64
2018-03-11T21:21:37.391Z,16.00
2018-03-11T21:22:37.401Z,14.56
2018-03-11T21:23:37.406Z,13.76
2018-03-11T21:24:37.406Z,11.08
2018-03-11T21:25:37.425Z,13.68
2018-03-11T21:26:37.425Z,13.52
2018-03-11T21:27:37.464Z,11.96
2018-03-11T21:28:37.337Z,15.88
2018-03-11T21:29:37.314Z,13.92
2018-03-11T21:30:37.452Z,17.64
2018-03-11T21:31:37.362Z,14.60
2018-03-11T21:32:37.377Z,13.72
2018-03-11T21:33:37.382Z,15.24
2018-03-11T21:34:37.380Z,15.88
2018-03-11T21:35:37.285Z,17.12
2018-03-11T21:36:37.302Z,14.76
2018-03-11T21:37:37.301Z,13.00
2018-03-11T21:38:37.309Z,12.56
2018-03-11T21:39:37.321Z,11.44
2018-03-11T21:40:37.327Z,13.00
2018-03-11T21:41:37.332Z,11.48
2018-03-11T21:42:37.347Z,10.32
2018-03-11T21:43:37.345Z,14.48
2018-03-11T21:44:37.354Z,9.96
2018-03-11T21:45:37.365Z,13.96
2018-03-11T21:46:38.401Z,14.72
2018-03-11T21:47:37.333Z,12.92
2018-03-11T21:48:37.389Z,10.28
2018-03-11T21:49:37.643Z,9.76
2018-03-11T21:50:37.394Z,9.16
2018-03-11T21:51:37.410Z,7.44
2018-03-11T21:52:37.412Z,7.60
2018-03-11T21:53:37.419Z,9.64
2018-03-11T21:54:37.435Z,10.52
2018-03-11T21:55:37.339Z,11.28
2018-03-11T21:56:37.337Z,11.28
2018-03-11T21:57:37.241Z,10.80
2018-03-11T21:58:37.358Z,10.96
2018-03-11T21:59:37.358Z,12.16
2018-03-11T22:00:37.372Z,11.80
2018-03-11T22:01:37.379Z,15.88
2018-03-11T22:02:37.382Z,13.12
2018-03-11T22:03:37.386Z,11.76
2018-03-11T22:04:37.402Z,12.00
2018-03-11T22:05:37.302Z,12.68
2018-03-11T22:06:36.954Z,13.44
2018-03-11T22:07:37.314Z,14.52
2018-03-11T22:08:37.331Z,13.72
2018-03-11T22:09:37.329Z,19.84
2018-03-11T22:10:37.338Z,20.08
2018-03-11T22:11:37.351Z,16.40
2018-03-11T22:12:37.358Z,15.04
2018-03-11T22:13:37.267Z,14.68
2018-03-11T22:14:37.266Z,15.60
2018-03-11T22:15:37.169Z,15.96
2018-03-11T22:16:36.982Z,14.24
2018-03-11T22:17:37.287Z,14.60
2018-03-11T22:18:37.193Z,16.56
2018-03-11T22:19:37.410Z,18.20
2018-03-11T22:20:37.282Z,19.76
2018-03-11T22:21:37.409Z,18.56
2018-03-11T22:22:37.377Z,12.92
2018-03-11T22:23:37.437Z,13.80
2018-03-11T22:24:37.234Z,14.72
2018-03-11T22:25:37.450Z,12.40
2018-03-11T22:26:37.462Z,12.04
2018-03-11T22:27:37.461Z,14.08
2018-03-11T22:28:37.368Z,14.48
2018-03-11T22:29:37.188Z,12.80
2018-03-11T22:30:37.386Z,12.28
2018-03-11T22:31:37.391Z,13.56
2018-03-11T22:32:37.399Z,11.28
2018-03-11T22:33:40.289Z,11.96
2018-03-11T22:34:37.433Z,12.72
2018-03-11T22:35:37.423Z,13.20
2018-03-11T22:36:37.430Z,12.28
2018-03-11T22:37:37.438Z,12.16
2018-03-11T22:38:37.305Z,15.96
2018-03-11T22:39:37.345Z,17.00
2018-03-11T22:40:37.359Z,15.80
2018-03-11T22:41:37.358Z,17.12
2018-03-11T22:42:37.366Z,15.72
2018-03-11T22:43:37.333Z,14.36
2018-03-11T22:44:37.377Z,14.68
2018-03-11T22:45:37.386Z,11.20
2018-03-11T22:46:38.430Z,13.88
2018-03-11T22:47:37.370Z,15.64
2018-03-11T22:48:37.405Z,14.32
2018-03-11T22:49:37.379Z,13.12
2018-03-11T22:50:37.400Z,11.00
2018-03-11T22:51:37.431Z,15.04
2018-03-11T22:52:37.442Z,13.40
2018-03-11T22:53:37.448Z,16.68
2018-03-11T22:54:37.450Z,12.72
2018-03-11T22:55:37.466Z,13.64
2018-03-11T22:56:37.471Z,11.88
2018-03-11T22:57:37.583Z,14.96
2018-03-11T22:58:37.277Z,15.96
2018-03-11T22:59:37.259Z,13.76
2018-03-11T23:02:14.161Z,15.08
2018-03-11T23:03:14.165Z,16.84
2018-03-11T23:04:14.145Z,16.12
2018-03-11T23:05:16.946Z,13.12
2018-03-11T23:06:14.189Z,14.56
2018-03-11T23:07:14.201Z,15.48
2018-03-11T23:08:14.113Z,14.92
2018-03-11T23:09:14.214Z,17.44
2018-03-11T23:10:14.223Z,14.64
2018-03-11T23:11:14.231Z,15.20
2018-03-11T23:12:14.234Z,12.88
2018-03-11T23:13:14.247Z,15.28
2018-03-11T23:14:14.153Z,14.40
2018-03-11T23:15:14.253Z,14.44
2018-03-11T23:16:14.230Z,12.60
2018-03-11T23:17:14.204Z,13.64
2018-03-11T23:18:14.174Z,12.68
2018-03-11T23:19:14.187Z,15.44
2018-03-11T23:20:14.196Z,12.88
2018-03-11T23:21:14.166Z,12.16
2018-03-11T23:22:14.170Z,11.12
2018-03-11T23:23:14.217Z,12.08
2018-03-11T23:24:14.218Z,13.20
2018-03-11T23:25:14.226Z,11.60
2018-03-11T23:26:14.448Z,13.84
2018-03-11T23:27:14.205Z,9.92
2018-03-11T23:28:14.226Z,10.08
2018-03-11T23:29:14.261Z,11.00
2018-03-11T23:30:14.261Z,11.72
2018-03-11T23:31:14.421Z,10.24
2018-03-11T23:32:14.179Z,13.12
2018-03-11T23:33:14.193Z,14.52
2018-03-11T23:34:14.191Z,12.88
2018-03-11T23:35:14.199Z,11.80
2018-03-11T23:36:14.215Z,12.24
2018-03-11T23:37:14.211Z,12.84
2018-03-11T23:38:14.120Z,12.84
2018-03-11T23:39:14.231Z,13.92
2018-03-11T23:40:14.235Z,13.72
2018-03-11T23:41:14.238Z,12.16
2018-03-11T23:42:14.147Z,13.64
2018-03-11T23:43:14.254Z,15.20
2018-03-11T23:44:14.369Z,11.84
2018-03-11T23:45:14.273Z,11.76
2018-03-11T23:46:14.279Z,9.96
2018-03-11T23:47:14.182Z,12.20
2018-03-11T23:48:14.188Z,11.00
2018-03-11T23:49:14.299Z,11.80
2018-03-11T23:50:14.202Z,10.04
2018-03-11T23:51:14.209Z,11.40
2018-03-11T23:52:14.221Z,13.76
2018-03-11T23:53:15.586Z,11.24
2018-03-11T23:54:14.342Z,9.56
2018-03-11T23:55:14.250Z,12.80
2018-03-11T23:56:14.250Z,12.20
2018-03-11T23:57:16.631Z,10.44
2018-03-11T23:58:14.274Z,9.48
2018-03-11T23:59:15.539Z,9.40
